createdAt,value
2023-02-06T00:01:28.847Z,99.58
2023-02-06T00:03:55.349Z,99.70
2023-02-06T00:06:22.146Z,100.00
2023-02-06T00:08:48.648Z,100.00
2023-02-06T00:11:16.819Z,100.00
2023-02-06T00:13:44.621Z,100.00
2023-02-06T00:16:22.896Z,100.00
2023-02-06T00:18:49.822Z,99.91
2023-02-06T00:21:20.170Z,100.00
2023-02-06T00:23:46.644Z,100.00
2023-02-06T00:26:13.107Z,100.00
2023-02-06T00:28:39.841Z,100.00
2023-02-06T00:31:08.122Z,100.00
2023-02-06T00:33:37.935Z,100.00
2023-02-06T00:36:05.609Z,100.00
2023-02-06T00:38:32.680Z,100.00
2023-02-06T00:40:59.218Z,100.00
2023-02-06T00:43:28.313Z,100.00
2023-02-06T00:45:56.720Z,100.00
2023-02-06T00:48:24.409Z,100.00
2023-02-06T00:50:52.653Z,100.00
2023-02-06T00:53:19.470Z,100.00
2023-02-06T00:55:45.987Z,100.00
2023-02-06T00:58:12.484Z,100.00
2023-02-06T01:00:39.020Z,100.00
2023-02-06T01:03:05.600Z,100.00
2023-02-06T01:05:32.392Z,100.00
2023-02-06T01:07:58.869Z,100.00
2023-02-06T01:10:25.349Z,100.00
2023-02-06T01:12:51.843Z,100.00
2023-02-06T01:15:18.414Z,100.00
2023-02-06T01:17:44.929Z,100.00
2023-02-06T01:20:12.974Z,100.00
2023-02-06T01:22:39.608Z,100.00
2023-02-06T01:25:08.908Z,100.00
2023-02-06T01:27:38.239Z,100.00
2023-02-06T01:30:08.925Z,100.00
2023-02-06T01:32:41.906Z,100.00
2023-02-06T01:35:10.144Z,100.00
2023-02-06T01:37:39.596Z,100.00
2023-02-06T01:40:08.583Z,100.00
2023-02-06T01:42:36.618Z,100.00
2023-02-06T01:45:40.824Z,100.00
2023-02-06T01:48:12.165Z,100.00
2023-02-06T01:50:41.510Z,100.00
2023-02-06T01:53:12.007Z,100.00
2023-02-06T01:55:41.794Z,100.00
2023-02-06T01:58:15.309Z,100.00
2023-02-06T02:00:42.175Z,100.00
2023-02-06T02:03:08.984Z,100.00
2023-02-06T02:05:36.098Z,100.00
2023-02-06T02:08:11.347Z,100.00
2023-02-06T02:10:37.869Z,100.00
2023-02-06T02:13:04.319Z,100.00
2023-02-06T02:15:48.920Z,100.00
2023-02-06T02:18:29.660Z,100.00
2023-02-06T02:21:20.348Z,100.00
2023-02-06T02:24:02.664Z,100.00
2023-02-06T02:27:02.296Z,100.00
2023-02-06T02:29:49.053Z,100.00
2023-02-06T02:32:31.434Z,100.00
2023-02-06T02:35:33.021Z,100.00
2023-02-06T02:38:05.662Z,100.00
2023-02-06T02:40:38.058Z,100.00
2023-02-06T02:43:29.952Z,100.00
2023-02-06T02:46:15.837Z,100.00
2023-02-06T02:48:47.238Z,100.00
2023-02-06T02:51:16.326Z,100.00
2023-02-06T02:53:45.973Z,100.00
2023-02-06T02:56:18.559Z,100.00
2023-02-06T02:58:48.819Z,100.00
2023-02-06T03:01:21.338Z,100.00
2023-02-06T03:03:49.174Z,100.00
2023-02-06T03:06:28.750Z,100.00
2023-02-06T03:09:03.109Z,100.00
2023-02-06T03:11:30.102Z,100.00
2023-02-06T03:14:18.195Z,100.00
2023-02-06T03:16:50.669Z,100.00
2023-02-06T03:19:21.619Z,100.00
2023-02-06T03:21:49.945Z,100.00
2023-02-06T03:24:29.812Z,100.00
2023-02-06T03:27:01.969Z,100.00
2023-02-06T03:29:31.537Z,100.00
2023-02-06T03:32:07.348Z,100.00
2023-02-06T03:35:01.854Z,100.00
2023-02-06T03:37:29.395Z,100.00
2023-02-06T03:39:59.223Z,100.00
2023-02-06T03:42:27.500Z,100.00
2023-02-06T03:45:00.576Z,100.00
2023-02-06T03:47:29.616Z,100.00
2023-02-06T03:49:59.982Z,100.00
2023-02-06T03:52:32.809Z,100.00
2023-02-06T03:55:04.261Z,100.00
2023-02-06T03:57:32.801Z,100.00
2023-02-06T03:59:59.360Z,100.00
2023-02-06T04:02:26.082Z,100.00
2023-02-06T04:04:52.701Z,100.00
2023-02-06T04:07:27.346Z,100.00
2023-02-06T04:09:54.002Z,100.00
2023-02-06T04:12:21.441Z,100.00
2023-02-06T04:14:51.228Z,100.00
2023-02-06T04:17:38.532Z,100.00
2023-02-06T04:20:08.216Z,100.00
2023-02-06T04:22:35.027Z,100.00
2023-02-06T04:25:01.839Z,100.00
2023-02-06T04:27:28.400Z,100.00
2023-02-06T04:29:54.856Z,100.00
2023-02-06T04:32:21.323Z,100.00
2023-02-06T04:34:51.828Z,100.00
2023-02-06T04:37:19.805Z,100.00
2023-02-06T04:39:49.975Z,100.00
2023-02-06T04:42:16.430Z,100.00
2023-02-06T04:44:42.881Z,100.00
2023-02-06T04:47:09.379Z,100.00
2023-02-06T04:49:35.883Z,100.00
2023-02-06T04:52:02.339Z,100.00
2023-02-06T04:54:29.775Z,100.00
2023-02-06T04:56:57.763Z,100.00
2023-02-06T04:59:24.258Z,100.00
2023-02-06T05:01:53.781Z,100.00
2023-02-06T05:04:23.962Z,100.00
2023-02-06T05:06:53.297Z,100.00
2023-02-06T05:09:22.689Z,100.00
2023-02-06T05:11:51.182Z,100.00
2023-02-06T05:14:17.646Z,100.00
2023-02-06T05:16:45.403Z,100.00
2023-02-06T05:19:11.850Z,100.00
2023-02-06T05:21:38.349Z,100.00
2023-02-06T05:24:05.195Z,100.00
2023-02-06T05:26:31.657Z,100.00
2023-02-06T05:28:58.124Z,100.00
2023-02-06T05:31:24.744Z,100.00
2023-02-06T05:33:55.198Z,100.00
2023-02-06T05:36:25.031Z,100.00
2023-02-06T05:38:54.275Z,100.00
2023-02-06T05:41:23.097Z,100.00
2023-02-06T05:43:49.573Z,100.00
2023-02-06T05:46:16.112Z,100.00
2023-02-06T05:48:42.582Z,100.00
2023-02-06T05:51:09.041Z,100.00
2023-02-06T05:53:35.543Z,100.00
2023-02-06T05:56:02.165Z,100.00
2023-02-06T05:58:28.714Z,100.00
2023-02-06T06:00:55.255Z,100.00
2023-02-06T06:03:24.958Z,100.00
2023-02-06T06:05:55.057Z,100.00
2023-02-06T06:08:23.569Z,100.00
2023-02-06T06:10:54.387Z,100.00
2023-02-06T06:13:21.737Z,100.00
2023-02-06T06:15:53.631Z,100.00
2023-02-06T06:18:23.952Z,100.00
2023-02-06T06:20:50.727Z,100.00
2023-02-06T06:23:17.850Z,100.00
2023-02-06T06:25:46.783Z,100.00
2023-02-06T06:28:13.413Z,100.00
2023-02-06T06:30:39.958Z,100.00
2023-02-06T06:33:06.484Z,100.00
2023-02-06T06:35:33.425Z,100.00
2023-02-06T06:38:00.075Z,100.00
2023-02-06T06:40:26.603Z,100.00
2023-02-06T06:42:56.283Z,100.00
2023-02-06T06:45:26.070Z,100.00
2023-02-06T06:47:55.448Z,100.00
2023-02-06T06:50:26.519Z,100.00
2023-02-06T06:52:55.805Z,100.00
2023-02-06T06:55:23.937Z,100.00
2023-02-06T06:57:54.798Z,100.00
2023-02-06T07:00:24.354Z,100.00
2023-02-06T07:02:55.792Z,100.00
2023-02-06T07:05:25.446Z,100.00
2023-02-06T07:07:53.712Z,100.00
2023-02-06T07:10:20.272Z,100.00
2023-02-06T07:12:46.703Z,100.00
2023-02-06T07:15:13.192Z,100.00
2023-02-06T07:17:39.929Z,100.00
2023-02-06T07:20:07.049Z,100.00
2023-02-06T07:22:33.564Z,100.00
2023-02-06T07:25:00.038Z,100.00
2023-02-06T07:27:26.570Z,100.00
2023-02-06T07:29:56.200Z,100.00
2023-02-06T07:32:28.116Z,100.00
2023-02-06T07:34:54.604Z,100.00
2023-02-06T07:37:23.498Z,100.00
2023-02-06T07:39:50.062Z,100.00
2023-02-06T07:42:16.701Z,100.00
2023-02-06T07:44:43.201Z,100.00
2023-02-06T07:47:10.428Z,100.00
2023-02-06T07:49:36.941Z,100.00
2023-02-06T07:52:03.913Z,100.00
2023-02-06T07:54:31.266Z,100.00
2023-02-06T07:56:57.731Z,100.00
2023-02-06T07:59:24.876Z,100.00
2023-02-06T08:01:55.705Z,100.00
2023-02-06T08:04:25.503Z,100.00
2023-02-06T08:06:54.719Z,100.00
2023-02-06T08:09:23.560Z,100.00
2023-02-06T08:11:53.089Z,100.00
2023-02-06T08:14:19.550Z,100.00
2023-02-06T08:16:46.378Z,100.00
2023-02-06T08:19:12.871Z,100.00
2023-02-06T08:21:39.421Z,100.00
2023-02-06T08:24:06.189Z,100.00
2023-02-06T08:26:33.213Z,100.00
2023-02-06T08:29:02.977Z,100.00
2023-02-06T08:31:35.533Z,100.00
2023-02-06T08:34:02.805Z,100.00
2023-02-06T08:36:31.931Z,100.00
2023-02-06T08:38:59.819Z,100.00
2023-02-06T08:41:41.055Z,100.00
2023-02-06T08:44:11.852Z,100.00
2023-02-06T08:46:39.358Z,100.00
2023-02-06T08:49:08.327Z,100.00
2023-02-06T08:51:36.805Z,100.00
2023-02-06T08:54:06.396Z,100.00
2023-02-06T08:56:34.638Z,100.00
2023-02-06T08:59:01.389Z,100.00
2023-02-06T09:01:30.693Z,100.00
2023-02-06T09:03:59.380Z,100.00
2023-02-06T09:06:26.547Z,100.00
2023-02-06T09:08:57.278Z,100.00
2023-02-06T09:11:26.017Z,100.00
2023-02-06T09:13:57.739Z,100.00
2023-02-06T09:16:26.087Z,100.00
2023-02-06T09:19:01.221Z,100.00
2023-02-06T09:21:30.353Z,100.00
2023-02-06T09:23:59.633Z,100.00
2023-02-06T09:26:44.875Z,100.00
2023-02-06T09:29:17.298Z,100.00
2023-02-06T09:31:43.977Z,100.00
2023-02-06T09:34:12.418Z,100.00
2023-02-06T09:36:39.458Z,100.00
2023-02-06T09:39:07.679Z,100.00
2023-02-06T09:41:36.747Z,100.00
2023-02-06T09:44:18.488Z,100.00
2023-02-06T09:46:50.163Z,100.00
2023-02-06T09:49:39.634Z,100.00
2023-02-06T09:52:35.089Z,100.00
2023-02-06T09:55:23.371Z,100.00
2023-02-06T09:58:06.574Z,100.00
2023-02-06T10:00:53.656Z,100.00
2023-02-06T10:03:48.483Z,99.77
2023-02-06T10:06:21.764Z,100.00
2023-02-06T10:09:16.293Z,98.89
2023-02-06T10:12:07.310Z,99.22
2023-02-06T10:14:46.848Z,99.56
2023-02-06T10:17:29.192Z,100.00
2023-02-06T10:20:12.399Z,98.68
2023-02-06T10:23:49.959Z,98.23
2023-02-06T10:26:18.440Z,97.79
2023-02-06T10:28:56.818Z,98.31
2023-02-06T10:31:29.474Z,98.16
2023-02-06T10:34:14.617Z,98.31
2023-02-06T10:36:53.766Z,97.45
2023-02-06T10:39:38.331Z,94.91
2023-02-06T10:42:26.319Z,95.03
2023-02-06T10:45:27.620Z,95.05
2023-02-06T10:47:55.673Z,91.75
2023-02-06T10:50:58.754Z,91.20
2023-02-06T10:53:34.716Z,89.52
2023-02-06T10:56:14.882Z,92.09
2023-02-06T10:59:20.488Z,87.57
2023-02-06T11:01:48.298Z,88.17
2023-02-06T11:04:25.757Z,84.97
2023-02-06T11:07:01.098Z,84.13
2023-02-06T11:09:28.208Z,83.64
2023-02-06T11:12:00.395Z,83.10
2023-02-06T11:14:38.539Z,84.92
2023-02-06T11:17:05.043Z,86.53
2023-02-06T11:19:39.001Z,84.46
2023-02-06T11:22:07.244Z,82.61
2023-02-06T11:24:35.092Z,82.46
2023-02-06T11:27:11.665Z,81.35
2023-02-06T11:29:44.980Z,81.69
2023-02-06T11:33:02.681Z,81.07
2023-02-06T11:35:36.625Z,80.16
2023-02-06T11:38:27.767Z,78.84
2023-02-06T11:40:55.694Z,78.10
2023-02-06T11:43:25.525Z,80.38
2023-02-06T11:46:14.283Z,79.44
2023-02-06T11:48:45.830Z,75.53
2023-02-06T11:51:14.121Z,75.73
2023-02-06T11:54:01.252Z,75.64
2023-02-06T11:56:29.907Z,75.30
2023-02-06T11:59:15.547Z,74.31
2023-02-06T12:01:47.288Z,72.57
2023-02-06T12:04:23.936Z,72.05
2023-02-06T12:06:56.512Z,73.02
2023-02-06T12:09:26.776Z,75.43
2023-02-06T12:12:11.806Z,74.64
2023-02-06T12:14:55.921Z,72.38
2023-02-06T12:17:32.772Z,74.78
2023-02-06T12:20:08.070Z,73.99
2023-02-06T12:22:40.400Z,74.02
2023-02-06T12:25:23.065Z,74.09
2023-02-06T12:27:54.292Z,72.52
2023-02-06T12:30:34.585Z,72.43
2023-02-06T12:33:33.301Z,73.36
2023-02-06T12:36:07.971Z,73.97
2023-02-06T12:38:43.916Z,72.74
2023-02-06T12:41:10.356Z,71.80
2023-02-06T12:43:38.509Z,73.01
2023-02-06T12:46:17.301Z,70.68
2023-02-06T12:49:07.684Z,68.85
2023-02-06T12:51:45.660Z,67.83
2023-02-06T12:54:26.418Z,69.29
2023-02-06T12:57:03.180Z,68.85
2023-02-06T13:00:06.759Z,65.60
2023-02-06T13:02:57.769Z,66.04
2023-02-06T13:05:38.415Z,68.04
2023-02-06T13:08:11.034Z,65.70
2023-02-06T13:10:39.004Z,64.52
2023-02-06T13:13:06.111Z,64.57
2023-02-06T13:15:41.106Z,67.17
2023-02-06T13:18:37.496Z,67.54
2023-02-06T13:21:28.768Z,65.85
2023-02-06T13:24:17.115Z,66.61
2023-02-06T13:26:47.862Z,66.78
2023-02-06T13:29:25.618Z,68.04
2023-02-06T13:32:10.708Z,68.74
2023-02-06T13:34:43.389Z,69.74
2023-02-06T13:37:34.948Z,69.30
2023-02-06T13:40:23.117Z,69.97
2023-02-06T13:43:07.727Z,71.28
2023-02-06T13:45:49.511Z,70.77
2023-02-06T13:48:28.265Z,71.74
2023-02-06T13:51:21.303Z,71.85
2023-02-06T13:54:15.863Z,72.69
2023-02-06T13:57:31.300Z,70.83
2023-02-06T14:00:23.038Z,73.53
2023-02-06T14:03:04.806Z,84.49
2023-02-06T14:05:44.064Z,71.51
2023-02-06T14:08:25.698Z,71.60
2023-02-06T14:11:39.558Z,71.35
2023-02-06T14:14:28.417Z,69.69
2023-02-06T14:17:10.742Z,68.02
2023-02-06T14:19:48.280Z,66.59
2023-02-06T14:22:49.226Z,65.22
2023-02-06T14:25:34.056Z,66.28
2023-02-06T14:28:19.117Z,66.89
2023-02-06T14:31:07.611Z,67.39
2023-02-06T14:33:59.714Z,67.88
2023-02-06T14:36:51.229Z,68.70
2023-02-06T14:39:52.794Z,67.67
2023-02-06T14:42:25.440Z,68.01
2023-02-06T14:45:03.136Z,68.33
2023-02-06T14:47:33.443Z,68.94
2023-02-06T14:50:00.946Z,67.85
2023-02-06T14:52:33.155Z,68.20
2023-02-06T14:54:59.765Z,68.42
2023-02-06T14:57:31.428Z,68.79
2023-02-06T15:00:01.730Z,68.64
2023-02-06T15:02:34.415Z,68.23
2023-02-06T15:05:02.370Z,66.82
2023-02-06T15:07:33.285Z,66.84
2023-02-06T15:10:07.602Z,66.13
2023-02-06T15:12:34.997Z,66.45
2023-02-06T15:15:23.554Z,65.85
2023-02-06T15:18:02.136Z,66.57
2023-02-06T15:20:40.232Z,67.43
2023-02-06T15:23:18.137Z,67.43
2023-02-06T15:25:58.950Z,68.51
2023-02-06T15:28:33.616Z,69.29
2023-02-06T15:31:01.992Z,69.15
2023-02-06T15:33:34.169Z,68.30
2023-02-06T15:36:03.304Z,69.24
2023-02-06T15:38:32.972Z,70.34
2023-02-06T15:41:06.511Z,70.49
2023-02-06T15:43:34.432Z,70.96
2023-02-06T15:46:03.198Z,70.84
2023-02-06T15:48:50.837Z,70.61
2023-02-06T15:51:30.043Z,70.41
2023-02-06T15:54:22.620Z,70.14
2023-02-06T15:57:17.182Z,70.38
2023-02-06T15:59:44.026Z,70.85
2023-02-06T16:02:24.911Z,70.80
2023-02-06T16:04:54.009Z,71.34
2023-02-06T16:07:31.748Z,72.27
2023-02-06T16:10:24.783Z,73.55
2023-02-06T16:12:52.778Z,71.09
2023-02-06T16:15:25.195Z,71.14
2023-02-06T16:17:52.395Z,71.25
2023-02-06T16:20:40.074Z,71.87
2023-02-06T16:23:47.653Z,70.95
2023-02-06T16:26:34.041Z,68.78
2023-02-06T16:29:12.803Z,68.39
2023-02-06T16:32:08.568Z,68.22
2023-02-06T16:34:45.807Z,69.20
2023-02-06T16:37:23.215Z,70.38
2023-02-06T16:39:49.822Z,70.44
2023-02-06T16:42:18.226Z,71.60
2023-02-06T16:44:50.260Z,72.49
2023-02-06T16:47:20.450Z,72.58
2023-02-06T16:49:51.071Z,74.06
2023-02-06T16:52:31.278Z,74.90
2023-02-06T16:55:00.105Z,75.60
2023-02-06T16:57:38.170Z,74.90
2023-02-06T17:00:25.550Z,75.53
2023-02-06T17:02:53.200Z,76.51
2023-02-06T17:05:23.702Z,76.79
2023-02-06T17:07:50.853Z,76.24
2023-02-06T17:10:19.760Z,76.04
2023-02-06T17:12:47.115Z,76.52
2023-02-06T17:15:18.280Z,76.25
2023-02-06T17:17:45.440Z,76.68
2023-02-06T17:20:41.073Z,77.32
2023-02-06T17:23:10.540Z,76.90
2023-02-06T17:26:15.512Z,77.47
2023-02-06T17:28:53.130Z,77.29
2023-02-06T17:31:20.126Z,78.21
2023-02-06T17:33:46.867Z,77.65
2023-02-06T17:36:18.635Z,77.67
2023-02-06T17:38:45.525Z,77.49
2023-02-06T17:41:12.318Z,77.93
2023-02-06T17:43:38.870Z,77.36
2023-02-06T17:46:06.592Z,77.90
2023-02-06T17:48:36.688Z,77.50
2023-02-06T17:51:05.735Z,76.88
2023-02-06T17:53:32.514Z,76.98
2023-02-06T17:56:07.148Z,77.83
2023-02-06T17:58:35.094Z,78.07
2023-02-06T18:01:01.804Z,78.59
2023-02-06T18:03:31.961Z,78.01
2023-02-06T18:06:02.788Z,78.61
2023-02-06T18:08:40.960Z,79.30
2023-02-06T18:11:32.279Z,78.90
2023-02-06T18:14:02.603Z,79.30
2023-02-06T18:16:32.305Z,79.30
2023-02-06T18:19:02.058Z,80.08
2023-02-06T18:21:31.548Z,80.56
2023-02-06T18:24:07.161Z,80.09
2023-02-06T18:26:33.872Z,80.81
2023-02-06T18:29:06.455Z,79.80
2023-02-06T18:31:38.842Z,80.25
2023-02-06T18:34:08.917Z,79.85
2023-02-06T18:36:36.918Z,78.23
2023-02-06T18:39:37.421Z,78.01
2023-02-06T18:42:23.534Z,77.63
2023-02-06T18:45:02.096Z,78.91
2023-02-06T18:47:30.705Z,76.53
2023-02-06T18:50:32.306Z,75.36
2023-02-06T18:54:53.398Z,75.44
2023-02-06T18:59:33.906Z,75.88
2023-02-06T19:00:47.777Z,75.82
2023-02-06T19:03:14.684Z,74.10
2023-02-06T19:06:48.436Z,75.33
2023-02-06T19:09:15.826Z,76.21
2023-02-06T19:11:43.004Z,76.73
2023-02-06T19:14:15.188Z,76.96
2023-02-06T19:16:44.458Z,77.55
2023-02-06T19:19:12.149Z,77.69
2023-02-06T19:21:39.200Z,77.80
2023-02-06T19:24:06.161Z,77.08
2023-02-06T19:26:34.033Z,77.42
2023-02-06T19:29:00.981Z,77.24
2023-02-06T19:31:31.677Z,77.32
2023-02-06T19:34:01.759Z,77.26
2023-02-06T19:36:35.836Z,78.14
2023-02-06T19:39:07.310Z,77.09
2023-02-06T19:41:34.357Z,77.17
2023-02-06T19:44:12.163Z,76.91
2023-02-06T19:46:45.025Z,76.04
2023-02-06T19:50:28.312Z,77.22
2023-02-06T19:52:35.233Z,76.44
2023-02-06T19:55:04.856Z,76.38
2023-02-06T19:57:47.070Z,76.52
2023-02-06T20:00:14.104Z,76.54
2023-02-06T20:02:40.610Z,76.34
2023-02-06T20:05:07.684Z,75.73
2023-02-06T20:07:45.157Z,74.08
2023-02-06T20:10:13.926Z,75.03
2023-02-06T20:12:42.750Z,74.41
2023-02-06T20:15:13.475Z,75.81
2023-02-06T20:18:06.894Z,76.68
2023-02-06T20:20:53.910Z,76.19
2023-02-06T20:26:35.386Z,75.63
2023-02-06T20:29:10.845Z,74.30
2023-02-06T20:31:37.365Z,75.22
2023-02-06T20:34:04.001Z,75.32
2023-02-06T20:36:31.145Z,75.13
2023-02-06T20:39:02.803Z,75.03
2023-02-06T20:41:32.283Z,75.82
2023-02-06T20:44:00.780Z,75.67
2023-02-06T20:46:30.851Z,75.62
2023-02-06T20:49:02.463Z,75.14
2023-02-06T20:51:32.321Z,74.81
2023-02-06T20:54:01.732Z,74.75
2023-02-06T20:56:30.618Z,74.66
2023-02-06T20:59:03.032Z,75.10
2023-02-06T21:01:31.523Z,74.71
2023-02-06T21:04:04.346Z,74.02
2023-02-06T21:06:35.974Z,73.59
2023-02-06T21:09:04.414Z,74.04
2023-02-06T21:11:36.262Z,73.40
2023-02-06T21:14:04.683Z,74.13
2023-02-06T21:16:32.444Z,73.42
2023-02-06T21:19:04.631Z,73.48
2023-02-06T21:21:34.533Z,72.59
2023-02-06T21:24:01.634Z,73.07
2023-02-06T21:26:29.246Z,72.62
2023-02-06T21:28:58.695Z,73.52
2023-02-06T21:31:37.883Z,74.33
2023-02-06T21:34:12.005Z,74.62
2023-02-06T21:36:39.607Z,74.72
2023-02-06T21:39:07.199Z,75.13
2023-02-06T21:41:34.575Z,75.21
2023-02-06T21:44:02.239Z,74.90
2023-02-06T21:46:34.621Z,75.08
2023-02-06T21:49:06.308Z,74.98
2023-02-06T21:51:41.470Z,75.18
2023-02-06T21:54:08.555Z,75.64
2023-02-06T21:56:38.038Z,75.38
2023-02-06T21:59:06.571Z,74.88
2023-02-06T22:01:34.081Z,75.51
2023-02-06T22:04:26.788Z,74.58
2023-02-06T22:06:53.338Z,73.73
2023-02-06T22:09:20.782Z,74.43
2023-02-06T22:11:47.374Z,73.67
2023-02-06T22:14:17.053Z,74.62
2023-02-06T22:16:46.528Z,73.72
2023-02-06T22:19:13.566Z,74.18
2023-02-06T22:21:41.518Z,74.66
2023-02-06T22:24:10.424Z,74.16
2023-02-06T22:26:38.816Z,74.84
2023-02-06T22:29:07.407Z,74.42
2023-02-06T22:31:36.409Z,74.96
2023-02-06T22:34:33.703Z,75.02
2023-02-06T22:37:02.323Z,75.67
2023-02-06T22:39:28.854Z,76.57
2023-02-06T22:41:55.370Z,77.30
2023-02-06T22:44:43.919Z,77.66
2023-02-06T22:47:10.518Z,78.58
2023-02-06T22:49:37.023Z,79.16
2023-02-06T22:52:26.675Z,79.55
2023-02-06T22:54:53.564Z,79.57
2023-02-06T22:57:20.344Z,79.39
2023-02-06T22:59:47.153Z,80.07
2023-02-06T23:02:13.982Z,80.25
2023-02-06T23:04:40.778Z,80.24
2023-02-06T23:07:07.494Z,80.27
2023-02-06T23:09:38.350Z,80.40
2023-02-06T23:12:05.544Z,81.42
2023-02-06T23:14:34.634Z,82.55
2023-02-06T23:17:04.516Z,81.95
2023-02-06T23:19:31.163Z,83.15
2023-02-06T23:21:57.898Z,82.33
2023-02-06T23:24:24.442Z,83.26
2023-02-06T23:26:51.874Z,83.47
2023-02-06T23:29:19.658Z,82.38
2023-02-06T23:31:47.428Z,83.94
2023-02-06T23:34:15.206Z,83.75
2023-02-06T23:36:42.747Z,83.45
2023-02-06T23:39:09.328Z,84.66
2023-02-06T23:41:39.189Z,84.77
2023-02-06T23:44:07.617Z,84.88
2023-02-06T23:46:39.860Z,85.65
2023-02-06T23:49:10.278Z,85.64
2023-02-06T23:51:38.068Z,86.81
2023-02-06T23:54:06.905Z,86.01
2023-02-06T23:56:33.598Z,86.07
2023-02-06T23:59:01.705Z,86.82
